Time;durP1;ratioP1;P1;durP2;ratioP2;P2;SDS_P1;SDS_P2;PMS_P1;PMS_P2;Temp;Humidity;BMP_temperature;BMP_pressure;BME280_temperature;BME280_humidity;BME280_pressure;Samples;Min_cycle;Max_cycle;Signal;HPM_P1;HPM_P2
2024/04/07 00:00:50;;;;;;;3.17;3.03;;;21.80;56.80;;;;;;5013531;28;20163;-63
2024/04/07 00:03:17;;;;;;;3.40;3.10;;;21.70;56.60;;;;;;5012474;28;20226;-63
2024/04/07 00:05:44;;;;;;;3.20;3.00;;;21.80;56.90;;;;;;5013448;28;20186;-63
2024/04/07 00:08:10;;;;;;;3.27;3.00;;;21.80;56.70;;;;;;5013347;28;20421;-63
2024/04/07 00:10:37;;;;;;;5.40;3.03;;;21.70;56.50;;;;;;5011195;28;20476;-63
2024/04/07 00:13:04;;;;;;;3.07;2.93;;;21.70;57.10;;;;;;5012026;28;20440;-63
2024/04/07 00:15:30;;;;;;;6.30;3.30;;;21.60;56.00;;;;;;5012339;28;20485;-63
2024/04/07 00:17:56;;;;;;;3.60;3.40;;;21.60;58.50;;;;;;5011893;28;20785;-63
2024/04/07 00:20:21;;;;;;;3.30;3.00;;;21.70;60.20;;;;;;5011514;28;20913;-63
2024/04/07 00:22:47;;;;;;;3.53;3.23;;;21.80;58.00;;;;;;5013149;28;20464;-63
2024/04/07 00:25:16;;;;;;;3.00;2.70;;;21.80;58.00;;;;;;5011350;28;20225;-62
2024/04/07 00:27:42;;;;;;;2.97;2.87;;;21.70;56.70;;;;;;5013246;28;20202;-63
2024/04/07 00:30:08;;;;;;;3.20;3.00;;;21.60;56.40;;;;;;5012958;28;20537;-63
2024/04/07 00:32:34;;;;;;;3.10;2.87;;;21.60;56.60;;;;;;5012248;28;20433;-63
2024/04/07 00:35:00;;;;;;;3.30;3.00;;;21.70;56.80;;;;;;5011303;28;20458;-63
2024/04/07 00:37:28;;;;;;;3.23;2.97;;;21.70;57.50;;;;;;5012395;28;20205;-63
2024/04/07 00:39:56;;;;;;;3.23;3.00;;;21.70;58.10;;;;;;5011216;28;20227;-63
2024/04/07 00:42:22;;;;;;;3.33;3.03;;;21.70;59.90;;;;;;5011463;28;20426;-63
2024/04/07 00:44:48;;;;;;;3.23;3.03;;;21.70;59.70;;;;;;5013010;28;20414;-63
2024/04/07 00:47:14;;;;;;;3.10;2.90;;;21.60;60.00;;;;;;5012667;28;20410;-64
2024/04/07 00:49:43;;;;;;;3.07;2.87;;;21.50;58.20;;;;;;5012818;28;20402;-63
2024/04/07 00:52:10;;;;;;;2.83;2.63;;;21.50;57.00;;;;;;5012850;28;20922;-63
2024/04/07 00:54:37;;;;;;;3.07;2.87;;;21.50;57.30;;;;;;5012185;28;20479;-63
2024/04/07 00:57:04;;;;;;;5.07;3.30;;;21.40;57.10;;;;;;5012802;28;20404;-63
2024/04/07 00:59:30;;;;;;;3.83;3.60;;;21.50;57.90;;;;;;5011916;28;20406;-63
2024/04/07 01:01:55;;;;;;;3.53;3.13;;;21.40;57.40;;;;;;5012583;28;20472;-63
2024/04/07 01:04:21;;;;;;;3.40;3.23;;;21.50;56.60;;;;;;5012083;28;20178;-63
2024/04/07 01:06:48;;;;;;;3.40;3.10;;;21.50;56.00;;;;;;5012519;28;20171;-63
2024/04/07 01:09:16;;;;;;;3.67;3.20;;;21.50;57.10;;;;;;5015991;28;20177;-63
2024/04/07 01:11:42;;;;;;;3.47;3.17;;;21.50;56.30;;;;;;5016293;28;20418;-63
2024/04/07 01:14:08;;;;;;;3.37;3.17;;;21.50;56.80;;;;;;5015766;28;20970;-63
2024/04/07 01:16:33;;;;;;;5.57;3.23;;;21.50;58.60;;;;;;5015928;28;20202;-63
2024/04/07 01:18:59;;;;;;;4.17;2.87;;;21.50;59.50;;;;;;5016460;28;20182;-63
2024/04/07 01:21:25;;;;;;;2.60;2.50;;;21.50;58.00;;;;;;5016235;28;20565;-63
2024/04/07 01:23:50;;;;;;;3.50;3.20;;;21.50;56.80;;;;;;5016399;28;20179;-63
2024/04/07 01:26:16;;;;;;;3.83;3.30;;;21.40;56.00;;;;;;5016097;28;20634;-64
2024/04/07 01:28:42;;;;;;;2.90;2.70;;;21.40;56.30;;;;;;5016320;28;20163;-63
2024/04/07 01:31:08;;;;;;;3.27;2.90;;;21.40;56.20;;;;;;5016242;28;20417;-63
2024/04/07 01:33:33;;;;;;;3.17;2.97;;;21.40;56.20;;;;;;5015863;28;20646;-63
2024/04/07 01:35:59;;;;;;;2.80;2.60;;;21.40;56.60;;;;;;5013773;28;20175;-63
2024/04/07 01:38:25;;;;;;;3.20;2.90;;;21.30;56.00;;;;;;5015471;28;20229;-63
2024/04/07 01:40:51;;;;;;;3.93;3.13;;;21.30;56.10;;;;;;5015725;28;20584;-63
2024/04/07 01:43:17;;;;;;;3.00;2.80;;;21.30;56.60;;;;;;5015725;28;20461;-63
2024/04/07 01:45:43;;;;;;;3.70;2.70;;;21.40;56.40;;;;;;5015925;28;20723;-63
2024/04/07 01:48:11;;;;;;;3.87;2.77;;;21.40;56.40;;;;;;5015529;28;20402;-63
2024/04/07 01:50:37;;;;;;;3.27;2.40;;;21.40;56.20;;;;;;5014855;28;20167;-63
2024/04/07 01:53:03;;;;;;;3.23;2.93;;;21.40;55.90;;;;;;5015633;28;20488;-63
2024/04/07 01:55:29;;;;;;;3.10;2.80;;;21.40;56.60;;;;;;5014661;28;20450;-62
2024/04/07 01:57:55;;;;;;;2.93;2.73;;;21.40;56.20;;;;;;5015274;28;20744;-63
2024/04/07 02:00:20;;;;;;;3.37;3.07;;;21.50;56.20;;;;;;5015028;28;20221;-63
2024/04/07 02:02:47;;;;;;;4.50;3.00;;;21.40;56.80;;;;;;5014961;28;20673;-63
2024/04/07 02:05:13;;;;;;;4.43;3.30;;;21.50;57.10;;;;;;5014720;28;20187;-64
2024/04/07 02:07:39;;;;;;;4.17;2.87;;;21.50;56.70;;;;;;5014339;28;20664;-63
2024/04/07 02:10:06;;;;;;;4.00;3.07;;;21.50;56.10;;;;;;5015172;28;20801;-63
2024/04/07 02:12:35;;;;;;;3.33;2.97;;;21.50;56.20;;;;;;5013958;28;20194;-63
2024/04/07 02:15:01;;;;;;;3.20;3.00;;;21.50;56.40;;;;;;5015032;28;20450;-64
2024/04/07 02:17:27;;;;;;;3.87;2.83;;;21.40;56.70;;;;;;5014483;28;20448;-63
2024/04/07 02:19:54;;;;;;;3.17;2.90;;;21.50;57.00;;;;;;5014734;28;20422;-63
2024/04/07 02:22:21;;;;;;;3.73;2.80;;;21.50;57.10;;;;;;5014363;28;20171;-62
2024/04/07 02:24:47;;;;;;;3.17;2.90;;;21.50;56.70;;;;;;5015075;28;20442;-63
2024/04/07 02:27:13;;;;;;;2.93;2.73;;;21.30;57.00;;;;;;5015023;28;20955;-64
2024/04/07 02:29:39;;;;;;;2.90;2.70;;;21.30;57.50;;;;;;5014100;28;20179;-63
2024/04/07 02:32:06;;;;;;;3.50;2.87;;;21.20;57.90;;;;;;5015112;28;20409;-63
2024/04/07 02:34:31;;;;;;;3.57;2.80;;;21.30;58.30;;;;;;5013199;28;20210;-63
2024/04/07 02:36:57;;;;;;;3.13;2.90;;;21.30;57.90;;;;;;5009715;28;20410;-64
2024/04/07 02:39:23;;;;;;;3.43;3.13;;;21.20;58.70;;;;;;5014205;28;20255;-62
2024/04/07 02:41:49;;;;;;;3.40;3.10;;;21.30;58.80;;;;;;5014764;28;20530;-63
2024/04/07 02:44:16;;;;;;;3.40;3.10;;;21.30;58.30;;;;;;5014314;28;20421;-63
2024/04/07 02:49:27;;;;;;;3.63;3.30;;;21.40;58.70;;;;;;4996479;28;20387;-63
2024/04/07 02:51:53;;;;;;;3.27;3.00;;;21.30;59.10;;;;;;5014558;28;20468;-63
2024/04/07 02:54:19;;;;;;;4.13;3.00;;;21.30;59.30;;;;;;5014245;28;20672;-63
2024/04/07 02:56:44;;;;;;;5.00;3.17;;;21.30;59.80;;;;;;5012586;28;20167;-63
2024/04/07 02:59:10;;;;;;;3.63;2.90;;;21.30;60.20;;;;;;5014399;28;20418;-63
2024/04/07 03:01:36;;;;;;;3.07;2.77;;;21.20;61.40;;;;;;5013317;28;20175;-62
2024/04/07 03:04:02;;;;;;;5.00;3.10;;;21.10;62.10;;;;;;5014090;28;20522;-63
2024/04/07 03:06:28;;;;;;;2.97;2.67;;;21.00;63.30;;;;;;5012483;28;20438;-62
2024/04/07 03:08:57;;;;;;;5.43;3.10;;;21.00;63.50;;;;;;5012955;28;20224;-63
2024/04/07 03:11:23;;;;;;;6.37;2.73;;;21.00;65.10;;;;;;5013927;28;20175;-63
2024/04/07 03:13:49;;;;;;;4.37;3.23;;;21.00;65.80;;;;;;5013714;28;20462;-63
2024/04/07 03:16:15;;;;;;;4.70;3.30;;;20.90;65.70;;;;;;5014258;28;20894;-63
2024/04/07 03:18:41;;;;;;;4.27;3.30;;;20.90;67.10;;;;;;5013017;28;20582;-63
2024/04/07 03:21:07;;;;;;;3.33;3.10;;;20.90;67.70;;;;;;5013936;28;20178;-63
2024/04/07 03:23:33;;;;;;;3.20;2.90;;;20.90;69.80;;;;;;5013121;28;20422;-62
2024/04/07 03:25:59;;;;;;;3.63;3.17;;;20.90;70.00;;;;;;5013647;28;20421;-63
2024/04/07 03:28:25;;;;;;;3.83;3.20;;;20.90;71.10;;;;;;5013281;28;20350;-62
2024/04/07 03:30:52;;;;;;;11.53;3.53;;;20.90;72.10;;;;;;5012514;28;20214;-63
2024/04/07 03:33:18;;;;;;;8.30;4.33;;;20.80;74.30;;;;;;5013080;28;20178;-63
2024/04/07 03:35:44;;;;;;;5.03;3.77;;;20.70;74.10;;;;;;5011850;28;20442;-63
2024/04/07 03:38:10;;;;;;;6.10;4.03;;;20.70;74.90;;;;;;5028901;28;20541;-63
2024/04/07 03:40:39;;;;;;;4.07;3.23;;;20.70;75.00;;;;;;5013138;28;20497;-63
2024/04/07 03:43:05;;;;;;;3.93;3.20;;;20.70;77.10;;;;;;5013337;28;20414;-63
2024/04/07 03:45:31;;;;;;;3.30;3.00;;;20.70;76.00;;;;;;5012610;28;20743;-62
2024/04/07 03:47:57;;;;;;;3.63;3.37;;;20.70;77.10;;;;;;5013528;28;20881;-63
2024/04/07 03:50:22;;;;;;;5.97;3.57;;;20.80;76.90;;;;;;5013206;28;20901;-63
2024/04/07 03:52:48;;;;;;;3.60;3.00;;;20.70;79.50;;;;;;5012860;28;20254;-63
2024/04/07 03:55:14;;;;;;;5.20;3.10;;;20.70;79.00;;;;;;5013229;28;20199;-63
2024/04/07 03:57:39;;;;;;;8.00;3.67;;;20.70;79.30;;;;;;5010947;28;20174;-63
2024/04/07 04:00:06;;;;;;;3.63;3.00;;;20.60;81.50;;;;;;5013125;28;20669;-63
2024/04/07 04:02:32;;;;;;;4.60;3.40;;;20.60;81.60;;;;;;5012452;28;20226;-62
2024/04/07 04:04:58;;;;;;;3.23;2.90;;;20.50;82.10;;;;;;5012208;28;20434;-63
2024/04/07 04:07:28;;;;;;;6.53;3.50;;;20.50;86.40;;;;;;5013221;28;20182;-63
2024/04/07 04:09:58;;;;;;;8.53;4.50;;;20.50;84.80;;;;;;5013336;28;20586;-63
2024/04/07 04:12:25;;;;;;;3.93;3.47;;;20.50;84.90;;;;;;5012895;28;20463;-63
2024/04/07 04:14:51;;;;;;;4.80;3.67;;;20.50;83.70;;;;;;5012621;28;20461;-63
2024/04/07 04:17:17;;;;;;;4.57;4.17;;;20.40;85.20;;;;;;5012574;28;20418;-63
2024/04/07 04:19:43;;;;;;;3.83;3.13;;;20.40;85.30;;;;;;5012147;28;20943;-62
2024/04/07 04:22:09;;;;;;;5.13;4.63;;;20.40;85.60;;;;;;5013192;28;20163;-63
2024/04/07 04:24:36;;;;;;;4.00;3.70;;;20.30;90.50;;;;;;5012201;28;20425;-63
2024/04/07 04:27:03;;;;;;;4.47;3.53;;;20.20;87.70;;;;;;5012691;28;20202;-63
2024/04/07 04:29:33;;;;;;;6.73;4.13;;;20.20;89.30;;;;;;5012296;28;20428;-62
2024/04/07 04:31:59;;;;;;;7.50;5.00;;;20.20;90.20;;;;;;5012682;28;20472;-63
2024/04/07 04:34:25;;;;;;;6.30;3.57;;;20.20;89.90;;;;;;5011417;28;20484;-63
2024/04/07 04:36:51;;;;;;;4.97;3.70;;;20.20;90.30;;;;;;5012049;28;20790;-62
2024/04/07 04:39:18;;;;;;;3.77;3.30;;;20.20;89.90;;;;;;5012699;28;20190;-63
2024/04/07 04:41:46;;;;;;;6.70;3.50;;;20.20;90.10;;;;;;5011818;28;20450;-63
2024/04/07 04:44:12;;;;;;;3.90;3.50;;;20.20;90.30;;;;;;5012417;28;20504;-63
2024/04/07 04:46:41;;;;;;;4.77;4.37;;;20.20;90.50;;;;;;5003944;28;20410;-62
2024/04/07 04:49:08;;;;;;;4.90;3.63;;;20.20;90.90;;;;;;5012242;28;20761;-63
2024/04/07 04:51:34;;;;;;;6.10;3.70;;;20.10;90.90;;;;;;5012271;28;20412;-63
2024/04/07 04:53:59;;;;;;;4.70;3.80;;;20.10;91.20;;;;;;5011285;28;20557;-63
2024/04/07 04:56:25;;;;;;;4.40;3.50;;;20.00;91.50;;;;;;5012234;28;20182;-63
2024/04/07 04:58:52;;;;;;;4.40;3.60;;;20.00;91.80;;;;;;5011763;28;20673;-63
2024/04/07 05:01:18;;;;;;;4.20;3.80;;;20.00;92.30;;;;;;5012379;28;20190;-63
2024/04/07 05:03:45;;;;;;;5.37;3.73;;;20.00;92.70;;;;;;5011347;28;20458;-63
2024/04/07 05:06:16;;;;;;;4.97;3.90;;;20.00;92.40;;;;;;5011668;28;20288;-63
2024/04/07 05:08:42;;;;;;;7.27;3.67;;;19.90;93.60;;;;;;5011706;28;20957;-62
2024/04/07 05:11:09;;;;;;;6.37;4.60;;;19.80;93.50;;;;;;5012247;28;20410;-63
2024/04/07 05:13:35;;;;;;;5.03;3.63;;;19.80;93.70;;;;;;5002068;28;20487;-62
2024/04/07 05:16:02;;;;;;;5.43;3.57;;;19.80;94.40;;;;;;5012441;28;20441;-63
2024/04/07 05:18:28;;;;;;;6.27;4.27;;;19.80;94.90;;;;;;5012200;28;20446;-63
2024/04/07 05:20:57;;;;;;;5.87;4.10;;;19.70;95.20;;;;;;5011413;28;20410;-63
2024/04/07 05:23:24;;;;;;;4.07;3.70;;;19.70;96.10;;;;;;5011677;28;20521;-63
2024/04/07 05:25:50;;;;;;;6.03;3.90;;;19.60;95.50;;;;;;5010786;28;20398;-62
2024/04/07 05:28:16;;;;;;;4.17;3.77;;;19.60;96.20;;;;;;5012199;28;20406;-63
2024/04/07 05:30:42;;;;;;;5.70;4.23;;;19.60;96.20;;;;;;5010244;28;20894;-63
2024/04/07 05:33:08;;;;;;;5.10;3.70;;;19.50;97.20;;;;;;5012740;28;20175;-63
2024/04/07 05:35:34;;;;;;;4.40;3.70;;;19.60;96.60;;;;;;5011730;28;20207;-63
2024/04/07 05:38:01;;;;;;;7.60;3.27;;;19.50;97.10;;;;;;5012080;28;20414;-62
2024/04/07 05:40:27;;;;;;;8.27;3.30;;;19.50;96.90;;;;;;5012039;28;20426;-63
2024/04/07 05:42:53;;;;;;;4.20;3.77;;;19.50;95.90;;;;;;5011426;28;20418;-63
2024/04/07 05:45:19;;;;;;;4.50;3.53;;;19.50;95.70;;;;;;5011987;28;20474;-62
2024/04/07 05:47:49;;;;;;;4.73;3.80;;;19.60;96.10;;;;;;5010155;28;20418;-61
2024/04/07 05:50:15;;;;;;;8.73;7.63;;;19.50;95.90;;;;;;5011820;28;20425;-61
2024/04/07 05:52:42;;;;;;;9.03;7.00;;;19.40;95.60;;;;;;5009949;28;20434;-61
2024/04/07 05:55:09;;;;;;;12.37;4.53;;;19.30;96.10;;;;;;5013619;28;20516;-61
2024/04/07 05:57:40;;;;;;;6.37;4.03;;;19.30;96.50;;;;;;5013870;28;20434;-61
2024/04/07 06:00:10;;;;;;;4.30;3.90;;;19.30;96.50;;;;;;5012271;28;20440;-63
2024/04/07 06:02:36;;;;;;;6.60;3.87;;;19.30;96.70;;;;;;5012472;28;20457;-63
2024/04/07 06:05:02;;;;;;;5.33;3.63;;;19.30;96.80;;;;;;5012760;28;20449;-63
2024/04/07 06:07:28;;;;;;;4.30;3.90;;;19.30;96.50;;;;;;5011726;28;20414;-63
2024/04/07 06:09:55;;;;;;;4.43;4.10;;;19.10;96.90;;;;;;5009175;28;20414;-63
2024/04/07 06:12:24;;;;;;;5.23;3.50;;;19.20;97.00;;;;;;5015346;28;20509;-64
2024/04/07 06:14:50;;;;;;;4.70;4.23;;;19.10;97.00;;;;;;5014613;28;20473;-63
2024/04/07 06:17:18;;;;;;;7.23;5.00;;;19.10;97.00;;;;;;5014302;28;20433;-63
2024/04/07 06:19:44;;;;;;;4.37;3.60;;;19.20;97.30;;;;;;5014697;28;20182;-63
2024/04/07 06:22:10;;;;;;;4.00;3.70;;;19.30;97.50;;;;;;5014422;28;20410;-64
2024/04/07 06:24:36;;;;;;;5.17;4.53;;;19.30;97.30;;;;;;5006624;28;20211;-63
2024/04/07 06:27:01;;;;;;;4.47;4.07;;;19.30;97.00;;;;;;5009471;28;20201;-64
2024/04/07 06:29:27;;;;;;;4.57;4.17;;;19.40;97.20;;;;;;5014128;28;20207;-65
2024/04/07 06:31:53;;;;;;;7.40;3.97;;;19.30;97.20;;;;;;5013237;28;20171;-64
2024/04/07 06:34:18;;;;;;;5.17;4.67;;;19.40;97.70;;;;;;5014746;28;20211;-64
2024/04/07 06:36:44;;;;;;;6.63;4.70;;;19.40;97.40;;;;;;5014454;28;20554;-64
2024/04/07 06:39:10;;;;;;;4.77;4.23;;;19.40;97.10;;;;;;5013231;28;20192;-65
2024/04/07 06:41:36;;;;;;;5.93;4.37;;;19.30;97.40;;;;;;5014311;28;20231;-67
2024/04/07 06:44:02;;;;;;;5.50;4.07;;;19.30;97.30;;;;;;5014279;28;20631;-64
2024/04/07 06:46:28;;;;;;;6.83;5.00;;;19.30;97.30;;;;;;5011323;28;20590;-65
2024/04/07 06:48:54;;;;;;;3.70;3.40;;;19.30;97.50;;;;;;5013097;28;20510;-65
2024/04/07 06:51:20;;;;;;;6.83;3.90;;;19.30;96.90;;;;;;5013088;28;20262;-65
2024/04/07 06:53:47;;;;;;;4.40;3.80;;;19.20;97.00;;;;;;5012452;28;20561;-65
2024/04/07 06:56:12;;;;;;;4.00;3.60;;;19.10;96.90;;;;;;5014542;28;20187;-64
2024/04/07 06:58:38;;;;;;;7.40;5.17;;;19.20;97.10;;;;;;5013997;28;20413;-64
2024/04/07 07:01:04;;;;;;;4.90;3.37;;;19.30;97.50;;;;;;5014378;28;20178;-65
2024/04/07 07:03:30;;;;;;;4.20;3.80;;;19.40;96.70;;;;;;5012265;28;20238;-65
2024/04/07 07:05:55;;;;;;;4.10;3.40;;;19.50;96.30;;;;;;5013410;28;20547;-64
2024/04/07 07:08:21;;;;;;;4.50;3.37;;;19.60;96.50;;;;;;5014054;28;20556;-64
2024/04/07 07:10:59;;;;;;;8.27;7.53;;;19.60;96.10;;;;;;5013457;28;20198;-65
2024/04/07 07:13:28;;;;;;;9.53;7.57;;;19.70;95.90;;;;;;5010718;28;20179;-65
2024/04/07 07:15:54;;;;;;;6.03;3.17;;;19.70;95.20;;;;;;5008112;28;20440;-64
2024/04/07 07:18:20;;;;;;;2.60;2.40;;;19.70;94.70;;;;;;5009703;28;20422;-64
2024/04/07 07:20:46;;;;;;;5.83;4.27;;;19.80;94.60;;;;;;5012356;28;20933;-65
2024/04/07 07:23:13;;;;;;;5.10;4.60;;;19.90;94.90;;;;;;5012190;28;20434;-65
2024/04/07 07:25:44;;;;;;;4.93;2.73;;;19.90;93.70;;;;;;5012173;28;20434;-67
2024/04/07 07:28:11;;;;;;;2.40;2.30;;;19.90;93.30;;;;;;5010332;28;20431;-65
2024/04/07 07:30:37;;;;;;;2.60;2.17;;;19.80;93.00;;;;;;5010735;28;20453;-69
2024/04/07 07:33:03;;;;;;;2.33;2.00;;;19.90;93.00;;;;;;5012764;28;20454;-70
2024/04/07 07:35:29;;;;;;;2.20;2.00;;;20.00;94.40;;;;;;5012250;28;20481;-70
2024/04/07 07:37:55;;;;;;;2.93;2.27;;;20.10;95.20;;;;;;5007792;28;20442;-70
2024/04/07 07:40:22;;;;;;;2.63;2.30;;;20.20;94.70;;;;;;5008456;28;20451;-70
2024/04/07 07:42:47;;;;;;;2.93;2.10;;;20.30;95.30;;;;;;5007624;28;21009;-69
2024/04/07 07:45:16;;;;;;;4.33;2.13;;;20.30;92.40;;;;;;5006471;28;20525;-69
2024/04/07 07:47:42;;;;;;;6.37;5.50;;;20.40;94.00;;;;;;4999735;28;20602;-70
2024/04/07 07:50:08;;;;;;;3.23;3.00;;;20.40;92.10;;;;;;5011465;28;20406;-69
2024/04/07 07:52:34;;;;;;;3.10;2.60;;;20.40;92.20;;;;;;5005751;28;20778;-69
2024/04/07 07:54:59;;;;;;;4.30;3.90;;;20.20;91.80;;;;;;5012029;28;20210;-69
2024/04/07 07:57:25;;;;;;;3.80;3.27;;;20.30;92.30;;;;;;5013528;28;20641;-69
2024/04/07 07:59:51;;;;;;;3.10;2.30;;;20.40;92.80;;;;;;5013008;28;20217;-70
2024/04/07 08:02:16;;;;;;;4.57;3.87;;;20.40;91.90;;;;;;5012033;28;20281;-69
2024/04/07 08:04:42;;;;;;;4.67;2.57;;;20.40;91.20;;;;;;5004391;28;20651;-70
2024/04/07 08:07:08;;;;;;;4.90;3.53;;;20.40;91.30;;;;;;5011697;28;20214;-70
2024/04/07 08:09:34;;;;;;;2.43;2.10;;;20.50;91.90;;;;;;5012315;28;20202;-70
2024/04/07 08:11:59;;;;;;;2.53;2.23;;;20.40;90.20;;;;;;5011475;28;20685;-70
2024/04/07 08:14:25;;;;;;;2.97;2.53;;;20.30;90.40;;;;;;5012755;28;20207;-70
2024/04/07 08:16:51;;;;;;;2.33;2.00;;;20.40;92.00;;;;;;5011678;28;20167;-70
2024/04/07 08:19:17;;;;;;;2.60;2.27;;;20.40;91.40;;;;;;5011532;28;20556;-69
2024/04/07 08:21:43;;;;;;;3.57;2.80;;;20.50;91.10;;;;;;5009567;28;20631;-70
2024/04/07 08:24:10;;;;;;;8.73;7.83;;;20.50;92.80;;;;;;5012809;28;20921;-70
2024/04/07 08:26:36;;;;;;;6.50;5.87;;;20.60;92.80;;;;;;5006754;28;20245;-69
2024/04/07 08:29:02;;;;;;;4.00;3.43;;;20.60;91.50;;;;;;5011484;28;20524;-70
2024/04/07 08:31:27;;;;;;;3.10;2.80;;;20.70;91.50;;;;;;5011550;28;20179;-70
2024/04/07 08:33:53;;;;;;;94.07;64.23;;;20.70;92.10;;;;;;5008477;28;20701;-70
2024/04/07 08:36:19;;;;;;;145.43;111.40;;;20.70;92.20;;;;;;5009224;28;20582;-70
2024/04/07 08:38:44;;;;;;;33.40;29.27;;;20.80;91.50;;;;;;5008477;28;20285;-70
2024/04/07 08:41:11;;;;;;;7.63;6.13;;;20.80;91.60;;;;;;5009100;28;20289;-70
2024/04/07 08:43:40;;;;;;;7.37;6.60;;;20.90;92.40;;;;;;5009446;28;20186;-70
2024/04/07 08:46:11;;;;;;;7.20;4.27;;;20.90;91.20;;;;;;5008282;28;20458;-70
2024/04/07 08:48:50;;;;;;;3.27;2.97;;;21.00;91.90;;;;;;5009409;28;20410;-70
2024/04/07 08:51:17;;;;;;;3.23;2.50;;;21.10;92.60;;;;;;5000322;28;20450;-70
2024/04/07 08:53:43;;;;;;;5.03;2.90;;;21.00;91.00;;;;;;5009757;28;20964;-70
2024/04/07 08:56:13;;;;;;;5.37;4.00;;;20.80;90.90;;;;;;5004809;28;20441;-70
2024/04/07 08:58:43;;;;;;;3.40;2.60;;;20.90;91.00;;;;;;5010679;28;20418;-70
2024/04/07 09:01:15;;;;;;;5.70;5.07;;;20.70;89.40;;;;;;5008171;28;20442;-70
2024/04/07 09:03:42;;;;;;;5.57;4.63;;;20.70;90.30;;;;;;5008016;28;20472;-69
2024/04/07 09:06:08;;;;;;;3.90;3.53;;;20.70;88.90;;;;;;5009154;28;20434;-70
2024/04/07 09:08:34;;;;;;;2.73;2.53;;;20.70;89.70;;;;;;5007523;28;20445;-70
2024/04/07 09:11:00;;;;;;;3.37;2.87;;;20.70;88.70;;;;;;5007425;28;20263;-70
2024/04/07 09:13:26;;;;;;;2.60;2.40;;;20.80;88.70;;;;;;5008383;28;20441;-70
2024/04/07 09:15:52;;;;;;;2.90;2.60;;;20.90;89.60;;;;;;5003865;28;20227;-69
2024/04/07 09:18:20;;;;;;;4.33;2.70;;;20.80;89.50;;;;;;5008826;28;20183;-70
2024/04/07 09:20:46;;;;;;;4.80;4.30;;;20.90;89.10;;;;;;5004871;28;20441;-69
2024/04/07 09:23:13;;;;;;;3.07;2.87;;;21.00;90.50;;;;;;5007227;28;20446;-70
2024/04/07 09:25:38;;;;;;;74.67;51.57;;;21.00;88.10;;;;;;5006855;28;20426;-70
2024/04/07 09:28:04;;;;;;;4.53;3.93;;;21.10;86.60;;;;;;5006666;28;20437;-70
2024/04/07 09:30:30;;;;;;;37.17;33.20;;;21.10;83.70;;;;;;5012431;28;20577;-70
2024/04/07 09:32:57;;;;;;;20.30;14.80;;;21.10;82.30;;;;;;5011685;28;20799;-70
2024/04/07 09:35:23;;;;;;;9.07;7.60;;;21.10;82.40;;;;;;5011111;28;20964;-70
2024/04/07 09:37:49;;;;;;;3.07;2.87;;;21.10;83.70;;;;;;5010554;28;20520;-69
2024/04/07 09:40:14;;;;;;;71.63;52.50;;;21.20;82.60;;;;;;5012101;28;20179;-70
2024/04/07 09:42:41;;;;;;;21.70;19.50;;;21.20;82.70;;;;;;5010821;28;20639;-70
2024/04/07 09:45:09;;;;;;;4.70;4.30;;;21.20;82.30;;;;;;5011058;28;20210;-70
2024/04/07 09:47:39;;;;;;;4.63;4.03;;;21.20;82.00;;;;;;5012677;28;20405;-70
2024/04/07 09:50:16;;;;;;;3.50;3.20;;;21.20;83.70;;;;;;5009594;28;20586;-70
2024/04/07 09:52:48;;;;;;;4.03;3.73;;;21.30;83.10;;;;;;5011367;28;20527;-70
2024/04/07 09:55:17;;;;;;;3.37;3.17;;;21.20;82.70;;;;;;5011784;28;20445;-70
2024/04/07 09:57:44;;;;;;;3.10;2.90;;;21.30;78.20;;;;;;5010934;28;20444;-69
2024/04/07 10:00:12;;;;;;;3.00;2.80;;;21.20;77.70;;;;;;5012118;28;20832;-69
2024/04/07 10:02:39;;;;;;;2.97;2.83;;;21.20;79.00;;;;;;5010312;28;20461;-69
2024/04/07 10:05:07;;;;;;;3.07;2.87;;;21.30;79.10;;;;;;5009183;28;20445;-69
2024/04/07 10:07:35;;;;;;;3.03;2.83;;;21.30;78.30;;;;;;5011195;28;20964;-69
2024/04/07 10:10:05;;;;;;;3.20;2.90;;;21.40;78.50;;;;;;5010737;28;20947;-69
2024/04/07 10:12:31;;;;;;;3.80;3.53;;;21.40;77.40;;;;;;5011581;28;20402;-69
2024/04/07 10:15:00;;;;;;;3.40;3.20;;;21.20;78.10;;;;;;5010922;28;20467;-69
2024/04/07 10:17:30;;;;;;;3.13;2.80;;;21.20;78.70;;;;;;5010933;28;20537;-69
2024/04/07 10:19:58;;;;;;;4.20;2.93;;;21.30;79.40;;;;;;5010950;28;20418;-69
2024/04/07 10:22:25;;;;;;;2.90;2.70;;;21.40;78.80;;;;;;5011513;28;20426;-69
2024/04/07 10:24:53;;;;;;;3.07;2.70;;;21.40;77.60;;;;;;5011626;28;20425;-69
2024/04/07 10:27:23;;;;;;;4.83;3.60;;;21.30;78.10;;;;;;5011467;28;20434;-69
2024/04/07 10:29:56;;;;;;;8.20;7.17;;;21.40;77.70;;;;;;5014305;28;20406;-67
2024/04/07 10:32:29;;;;;;;22.67;18.70;;;21.50;82.00;;;;;;5022112;28;20422;-69
2024/04/07 10:35:04;;;;;;;3.47;3.27;;;21.60;80.20;;;;;;5013972;28;20582;-69
2024/04/07 10:37:35;;;;;;;3.70;3.40;;;21.60;78.80;;;;;;5014981;28;20406;-69
2024/04/07 10:40:08;;;;;;;6.93;3.80;;;21.70;81.80;;;;;;5013460;28;20413;-69
2024/04/07 10:42:35;;;;;;;2.90;2.70;;;21.80;77.30;;;;;;5013418;28;20925;-68
2024/04/07 10:45:05;;;;;;;3.70;3.40;;;21.80;78.50;;;;;;5012690;28;20485;-69
2024/04/07 10:47:31;;;;;;;3.57;3.00;;;21.70;75.30;;;;;;5014093;28;20418;-69
2024/04/07 10:49:59;;;;;;;4.50;4.07;;;21.70;75.30;;;;;;5014162;28;20402;-69
2024/04/07 10:52:29;;;;;;;17.03;4.33;;;21.80;75.90;;;;;;5014795;28;20606;-69
2024/04/07 10:54:58;;;;;;;5.03;3.60;;;21.80;75.90;;;;;;5013613;28;20502;-70
2024/04/07 10:57:24;;;;;;;3.87;3.67;;;21.80;76.30;;;;;;5013787;28;20516;-69
2024/04/07 10:59:50;;;;;;;3.67;3.47;;;21.90;77.00;;;;;;5013898;28;20893;-68
2024/04/07 11:02:16;;;;;;;2.73;2.50;;;21.90;76.50;;;;;;5013135;28;20690;-69
2024/04/07 11:04:42;;;;;;;9.10;3.80;;;21.90;75.20;;;;;;5013430;28;20183;-68
2024/04/07 11:07:09;;;;;;;3.00;2.90;;;21.80;75.10;;;;;;5011409;28;20604;-69
2024/04/07 11:09:34;;;;;;;4.77;3.07;;;21.90;76.10;;;;;;5012848;28;20453;-68
2024/04/07 11:12:01;;;;;;;2.80;2.60;;;21.90;75.70;;;;;;5014106;28;20449;-69
2024/04/07 11:14:28;;;;;;;3.10;3.00;;;22.00;75.50;;;;;;5013940;28;20203;-68
2024/04/07 11:16:55;;;;;;;14.63;13.17;;;22.00;76.20;;;;;;5013424;28;20414;-69
2024/04/07 11:19:24;;;;;;;24.00;17.90;;;22.00;75.60;;;;;;5012991;28;20430;-69
2024/04/07 11:21:51;;;;;;;4.10;3.90;;;22.10;75.70;;;;;;5013907;28;20921;-68
2024/04/07 11:24:20;;;;;;;2.53;2.43;;;22.00;74.40;;;;;;5014250;28;20869;-69
2024/04/07 11:26:50;;;;;;;3.00;2.70;;;22.10;73.80;;;;;;5007563;28;20418;-69
2024/04/07 11:29:17;;;;;;;2.80;2.57;;;22.20;73.10;;;;;;5004305;28;20890;-69
2024/04/07 11:31:53;;;;;;;2.30;2.20;;;22.30;73.90;;;;;;5013736;28;20418;-69
2024/04/07 11:34:24;;;;;;;3.10;2.30;;;22.40;73.00;;;;;;5013506;28;20544;-69
2024/04/07 11:36:50;;;;;;;3.33;2.67;;;22.50;71.90;;;;;;5012642;28;20756;-68
2024/04/07 11:39:16;;;;;;;2.37;2.10;;;22.70;71.90;;;;;;5010328;28;20417;-69
2024/04/07 11:41:43;;;;;;;2.97;2.87;;;22.90;66.10;;;;;;5013361;28;20256;-69
2024/04/07 11:44:09;;;;;;;2.80;2.60;;;23.00;65.20;;;;;;5012853;28;20498;-69
2024/04/07 11:46:35;;;;;;;2.47;2.30;;;23.10;65.80;;;;;;5013271;28;20933;-69
2024/04/07 11:49:00;;;;;;;2.30;2.20;;;23.10;64.70;;;;;;5013045;28;20183;-69
2024/04/07 11:51:26;;;;;;;2.63;2.43;;;23.20;66.50;;;;;;5013281;28;20469;-70
2024/04/07 11:53:54;;;;;;;2.43;2.33;;;23.40;67.40;;;;;;5012676;28;20175;-68
2024/04/07 11:56:20;;;;;;;2.50;2.40;;;23.40;64.60;;;;;;5011239;28;20539;-69
2024/04/07 11:58:46;;;;;;;2.53;2.33;;;23.40;65.00;;;;;;5013083;28;20433;-69
2024/04/07 12:01:12;;;;;;;14.33;12.43;;;23.40;65.40;;;;;;5005910;28;20418;-69
2024/04/07 12:03:37;;;;;;;52.87;45.80;;;23.50;64.60;;;;;;5012866;28;20694;-69
2024/04/07 12:06:04;;;;;;;3.10;2.80;;;23.50;64.40;;;;;;5007570;28;20439;-68
2024/04/07 12:08:30;;;;;;;2.40;2.30;;;23.40;62.30;;;;;;5012883;28;20183;-69
2024/04/07 12:10:56;;;;;;;2.73;2.57;;;23.40;62.50;;;;;;5008276;28;20446;-69
2024/04/07 12:13:22;;;;;;;2.97;2.77;;;23.50;63.90;;;;;;5010714;28;20488;-69
2024/04/07 12:15:47;;;;;;;3.87;2.53;;;23.50;66.60;;;;;;5010048;28;20214;-69
2024/04/07 12:18:14;;;;;;;3.00;2.30;;;23.70;68.40;;;;;;5004938;28;20180;-69
2024/04/07 12:20:39;;;;;;;3.03;2.80;;;23.80;68.20;;;;;;5005628;28;20179;-69
2024/04/07 12:23:05;;;;;;;2.80;2.70;;;23.90;66.60;;;;;;5012664;28;20475;-69
2024/04/07 12:25:31;;;;;;;2.60;2.40;;;24.10;66.20;;;;;;5013168;28;20414;-69
2024/04/07 12:27:57;;;;;;;2.20;2.10;;;24.30;65.20;;;;;;5012184;28;20258;-68
2024/04/07 12:30:23;;;;;;;2.70;2.60;;;24.40;63.60;;;;;;5012244;28;20182;-69
2024/04/07 12:32:49;;;;;;;2.00;1.90;;;24.50;63.00;;;;;;5009686;28;20430;-69
2024/04/07 12:35:14;;;;;;;2.33;2.23;;;24.60;63.90;;;;;;4999355;28;20298;-69
2024/04/07 12:37:40;;;;;;;4.13;2.40;;;24.60;64.40;;;;;;5012556;28;20222;-69
2024/04/07 12:40:07;;;;;;;2.80;2.70;;;24.70;62.10;;;;;;5011185;28;20173;-64
2024/04/07 12:42:33;;;;;;;2.63;2.50;;;24.70;59.70;;;;;;5013010;28;20167;-63
2024/04/07 12:44:59;;;;;;;2.27;2.17;;;24.60;59.80;;;;;;5012069;28;20756;-63